Black Mesa, Arizona
Current Conditions -  °F | °C
As of 11:53 AM on Friday 24 Oct 2014 (Local Time) from KPGA Reporting Station
Clear Clear  
Wind Chill: 19°   Ceiling: Unl
Heat Index: 19°   Visibility: 10mi
Dew Point:   Wind: 3mph
Humidity: 28%   Direction: NA
Pressure: 30.28"   Gusts: NA
Location:  36.6859°N, 110.268°W
Report Text: KPGA 241753Z AUTO VRB03KT 10SM CLR 19/01 A3028 RMK AO2 SLP210 T01940006 10200 20106 50003
Loading
Personal Weather Stations






























Interactive Weather Map
Tropical Storm Tracking
New forecast layout! Learn more

10-Day Weather Forecast

Advertisements
Track Severe Weather on mobile